sensor_id;sensor_type;location;lat;lon;timestamp;P1;durP1;ratioP1;P2;durP2;ratioP2
46921;SDS011;44039;48.336;10.454;2022-08-04T00:09:14;138.57;;;132.65;;
46921;SDS011;44039;48.336;10.454;2022-08-04T00:12:08;142.73;;;136.95;;
46921;SDS011;44039;48.336;10.454;2022-08-04T00:14:58;141.93;;;136.23;;
46921;SDS011;44039;48.336;10.454;2022-08-04T00:17:54;142.23;;;136.32;;
46921;SDS011;44039;48.336;10.454;2022-08-04T00:20:47;140.55;;;134.93;;
46921;SDS011;44039;48.336;10.454;2022-08-04T00:23:35;139.32;;;133.80;;
46921;SDS011;44039;48.336;10.454;2022-08-04T00:26:44;136.15;;;130.48;;
46921;SDS011;44039;48.336;10.454;2022-08-04T00:29:31;136.50;;;131.07;;
46921;SDS011;44039;48.336;10.454;2022-08-04T00:32:20;133.23;;;127.97;;
46921;SDS011;44039;48.336;10.454;2022-08-04T00:35:20;138.00;;;132.70;;
46921;SDS011;44039;48.336;10.454;2022-08-04T00:38:07;140.98;;;135.48;;
46921;SDS011;44039;48.336;10.454;2022-08-04T00:44:16;139.80;;;134.30;;
46921;SDS011;44039;48.336;10.454;2022-08-04T01:02:24;138.65;;;133.18;;
46921;SDS011;44039;48.336;10.454;2022-08-04T01:17:23;132.98;;;127.38;;
46921;SDS011;44039;48.336;10.454;2022-08-04T01:20:12;127.28;;;122.07;;
46921;SDS011;44039;48.336;10.454;2022-08-04T01:29:48;128.18;;;123.00;;
46921;SDS011;44039;48.336;10.454;2022-08-04T01:35:51;125.68;;;120.53;;
46921;SDS011;44039;48.336;10.454;2022-08-04T01:38:41;133.27;;;127.93;;
46921;SDS011;44039;48.336;10.454;2022-08-04T01:41:29;134.60;;;129.15;;
46921;SDS011;44039;48.336;10.454;2022-08-04T01:44:18;132.20;;;127.00;;
46921;SDS011;44039;48.336;10.454;2022-08-04T01:47:07;130.00;;;124.50;;
46921;SDS011;44039;48.336;10.454;2022-08-04T01:49:59;133.77;;;128.27;;
46921;SDS011;44039;48.336;10.454;2022-08-04T01:52:52;129.48;;;124.28;;
46921;SDS011;44039;48.336;10.454;2022-08-04T01:55:40;129.38;;;124.38;;
46921;SDS011;44039;48.336;10.454;2022-08-04T01:58:41;132.20;;;126.85;;
46921;SDS011;44039;48.336;10.454;2022-08-04T02:01:28;132.80;;;127.45;;
46921;SDS011;44039;48.336;10.454;2022-08-04T02:04:22;129.50;;;124.13;;
46921;SDS011;44039;48.336;10.454;2022-08-04T02:13:20;128.25;;;123.00;;
46921;SDS011;44039;48.336;10.454;2022-08-04T02:16:15;126.65;;;121.63;;
46921;SDS011;44039;48.336;10.454;2022-08-04T02:19:32;127.22;;;121.93;;
46921;SDS011;44039;48.336;10.454;2022-08-04T02:22:27;127.22;;;122.03;;
46921;SDS011;44039;48.336;10.454;2022-08-04T02:25:16;125.95;;;120.35;;
46921;SDS011;44039;48.336;10.454;2022-08-04T02:37:03;121.68;;;116.85;;
46921;SDS011;44039;48.336;10.454;2022-08-04T02:39:53;121.65;;;116.47;;
46921;SDS011;44039;48.336;10.454;2022-08-04T02:42:44;119.28;;;114.57;;
46921;SDS011;44039;48.336;10.454;2022-08-04T02:45:31;116.32;;;111.40;;
46921;SDS011;44039;48.336;10.454;2022-08-04T02:48:23;117.20;;;112.00;;
46921;SDS011;44039;48.336;10.454;2022-08-04T02:51:18;115.63;;;110.78;;
46921;SDS011;44039;48.336;10.454;2022-08-04T02:54:08;115.50;;;110.22;;
46921;SDS011;44039;48.336;10.454;2022-08-04T02:56:55;112.72;;;107.82;;
46921;SDS011;44039;48.336;10.454;2022-08-04T03:02:49;110.35;;;105.70;;
46921;SDS011;44039;48.336;10.454;2022-08-04T03:12:23;110.22;;;105.47;;
46921;SDS011;44039;48.336;10.454;2022-08-04T03:15:46;105.15;;;100.45;;
46921;SDS011;44039;48.336;10.454;2022-08-04T03:27:57;112.72;;;107.68;;
46921;SDS011;44039;48.336;10.454;2022-08-04T03:59:16;111.05;;;105.90;;
46921;SDS011;44039;48.336;10.454;2022-08-04T04:15:12;109.55;;;104.85;;
46921;SDS011;44039;48.336;10.454;2022-08-04T04:27:39;113.15;;;108.15;;
46921;SDS011;44039;48.336;10.454;2022-08-04T04:30:45;112.70;;;107.88;;
46921;SDS011;44039;48.336;10.454;2022-08-04T04:33:46;112.68;;;108.13;;
46921;SDS011;44039;48.336;10.454;2022-08-04T04:37:00;112.67;;;107.80;;
46921;SDS011;44039;48.336;10.454;2022-08-04T04:43:36;109.72;;;104.93;;
46921;SDS011;44039;48.336;10.454;2022-08-04T04:50:03;110.43;;;105.65;;
46921;SDS011;44039;48.336;10.454;2022-08-04T04:52:55;117.82;;;113.03;;
46921;SDS011;44039;48.336;10.454;2022-08-04T04:55:58;114.10;;;109.40;;
46921;SDS011;44039;48.336;10.454;2022-08-04T04:58:51;123.57;;;118.10;;
46921;SDS011;44039;48.336;10.454;2022-08-04T05:14:05;131.75;;;125.85;;
46921;SDS011;44039;48.336;10.454;2022-08-04T05:17:25;131.95;;;126.35;;
46921;SDS011;44039;48.336;10.454;2022-08-04T05:20:32;133.30;;;127.00;;
46921;SDS011;44039;48.336;10.454;2022-08-04T05:26:14;145.18;;;139.27;;
46921;SDS011;44039;48.336;10.454;2022-08-04T05:29:08;163.05;;;155.88;;
46921;SDS011;44039;48.336;10.454;2022-08-04T05:32:06;171.38;;;164.98;;
46921;SDS011;44039;48.336;10.454;2022-08-04T05:35:03;178.75;;;172.07;;
46921;SDS011;44039;48.336;10.454;2022-08-04T05:37:54;178.60;;;172.07;;
46921;SDS011;44039;48.336;10.454;2022-08-04T05:40:47;183.43;;;176.48;;
46921;SDS011;44039;48.336;10.454;2022-08-04T05:43:37;184.52;;;177.85;;
46921;SDS011;44039;48.336;10.454;2022-08-04T05:46:27;188.18;;;181.27;;
46921;SDS011;44039;48.336;10.454;2022-08-04T05:49:16;191.18;;;184.07;;
46921;SDS011;44039;48.336;10.454;2022-08-04T05:52:08;181.85;;;175.20;;
46921;SDS011;44039;48.336;10.454;2022-08-04T05:54:57;179.90;;;173.27;;
46921;SDS011;44039;48.336;10.454;2022-08-04T05:57:46;180.00;;;173.10;;
46921;SDS011;44039;48.336;10.454;2022-08-04T06:00:41;185.70;;;179.18;;
46921;SDS011;44039;48.336;10.454;2022-08-04T06:03:37;177.45;;;170.80;;
46921;SDS011;44039;48.336;10.454;2022-08-04T06:06:25;175.18;;;168.50;;
46921;SDS011;44039;48.336;10.454;2022-08-04T06:09:15;170.52;;;163.77;;
46921;SDS011;44039;48.336;10.454;2022-08-04T06:12:03;175.20;;;168.43;;
46921;SDS011;44039;48.336;10.454;2022-08-04T06:14:55;189.13;;;182.27;;
46921;SDS011;44039;48.336;10.454;2022-08-04T06:17:47;202.13;;;194.88;;
46921;SDS011;44039;48.336;10.454;2022-08-04T06:20:55;212.50;;;205.02;;
46921;SDS011;44039;48.336;10.454;2022-08-04T06:23:49;224.38;;;216.48;;
46921;SDS011;44039;48.336;10.454;2022-08-04T06:26:46;233.68;;;225.80;;
46921;SDS011;44039;48.336;10.454;2022-08-04T06:29:35;228.70;;;220.93;;
46921;SDS011;44039;48.336;10.454;2022-08-04T06:32:37;240.88;;;232.75;;
46921;SDS011;44039;48.336;10.454;2022-08-04T06:35:33;234.68;;;226.68;;
46921;SDS011;44039;48.336;10.454;2022-08-04T06:38:24;245.70;;;237.27;;
46921;SDS011;44039;48.336;10.454;2022-08-04T06:41:12;238.02;;;229.95;;
46921;SDS011;44039;48.336;10.454;2022-08-04T06:44:06;256.23;;;247.63;;
46921;SDS011;44039;48.336;10.454;2022-08-04T06:46:55;252.45;;;243.98;;
46921;SDS011;44039;48.336;10.454;2022-08-04T06:49:47;256.02;;;247.68;;
46921;SDS011;44039;48.336;10.454;2022-08-04T06:52:57;264.48;;;255.80;;
46921;SDS011;44039;48.336;10.454;2022-08-04T06:55:45;270.58;;;261.70;;
46921;SDS011;44039;48.336;10.454;2022-08-04T06:58:33;261.65;;;252.85;;
46921;SDS011;44039;48.336;10.454;2022-08-04T07:01:22;259.05;;;250.35;;
46921;SDS011;44039;48.336;10.454;2022-08-04T07:04:12;258.35;;;249.70;;
46921;SDS011;44039;48.336;10.454;2022-08-04T07:06:59;255.60;;;247.05;;
46921;SDS011;44039;48.336;10.454;2022-08-04T07:09:47;253.15;;;244.85;;
46921;SDS011;44039;48.336;10.454;2022-08-04T07:12:34;253.65;;;245.23;;
46921;SDS011;44039;48.336;10.454;2022-08-04T07:15:23;264.00;;;255.00;;
46921;SDS011;44039;48.336;10.454;2022-08-04T07:18:11;263.25;;;254.38;;
46921;SDS011;44039;48.336;10.454;2022-08-04T07:20:58;272.13;;;263.08;;
46921;SDS011;44039;48.336;10.454;2022-08-04T07:23:46;275.17;;;266.20;;
46921;SDS011;44039;48.336;10.454;2022-08-04T07:26:33;276.30;;;266.98;;
46921;SDS011;44039;48.336;10.454;2022-08-04T07:29:20;275.85;;;266.25;;
46921;SDS011;44039;48.336;10.454;2022-08-04T07:32:08;268.52;;;259.70;;
46921;SDS011;44039;48.336;10.454;2022-08-04T07:34:56;269.67;;;260.63;;
46921;SDS011;44039;48.336;10.454;2022-08-04T07:37:45;263.67;;;254.57;;
46921;SDS011;44039;48.336;10.454;2022-08-04T07:40:32;265.05;;;256.05;;
46921;SDS011;44039;48.336;10.454;2022-08-04T07:43:21;262.42;;;253.52;;
46921;SDS011;44039;48.336;10.454;2022-08-04T07:46:09;262.10;;;253.40;;
46921;SDS011;44039;48.336;10.454;2022-08-04T07:48:56;267.63;;;258.65;;
46921;SDS011;44039;48.336;10.454;2022-08-04T07:51:46;271.13;;;261.88;;
46921;SDS011;44039;48.336;10.454;2022-08-04T07:54:33;277.98;;;268.70;;
46921;SDS011;44039;48.336;10.454;2022-08-04T07:57:21;282.77;;;273.52;;
46921;SDS011;44039;48.336;10.454;2022-08-04T08:00:27;273.90;;;264.52;;
46921;SDS011;44039;48.336;10.454;2022-08-04T08:03:15;278.90;;;269.70;;
46921;SDS011;44039;48.336;10.454;2022-08-04T08:06:07;286.60;;;277.23;;
46921;SDS011;44039;48.336;10.454;2022-08-04T08:09:16;295.45;;;285.50;;
46921;SDS011;44039;48.336;10.454;2022-08-04T08:12:05;295.13;;;285.38;;
46921;SDS011;44039;48.336;10.454;2022-08-04T08:15:13;294.38;;;284.55;;
46921;SDS011;44039;48.336;10.454;2022-08-04T08:18:01;282.05;;;272.10;;
46921;SDS011;44039;48.336;10.454;2022-08-04T08:20:48;288.35;;;278.80;;
46921;SDS011;44039;48.336;10.454;2022-08-04T08:23:35;282.83;;;273.40;;
46921;SDS011;44039;48.336;10.454;2022-08-04T08:26:23;275.90;;;266.58;;
46921;SDS011;44039;48.336;10.454;2022-08-04T08:29:10;290.08;;;280.38;;
46921;SDS011;44039;48.336;10.454;2022-08-04T08:31:58;289.25;;;279.63;;
46921;SDS011;44039;48.336;10.454;2022-08-04T08:34:54;289.45;;;279.95;;
46921;SDS011;44039;48.336;10.454;2022-08-04T08:37:45;287.65;;;278.13;;
46921;SDS011;44039;48.336;10.454;2022-08-04T09:00:03;297.60;;;287.60;;
46921;SDS011;44039;48.336;10.454;2022-08-04T09:03:04;296.75;;;287.13;;
46921;SDS011;44039;48.336;10.454;2022-08-04T09:16:03;293.48;;;283.77;;
46921;SDS011;44039;48.336;10.454;2022-08-04T09:18:39;287.88;;;278.42;;
46921;SDS011;44039;48.336;10.454;2022-08-04T09:36:33;306.02;;;295.80;;
46921;SDS011;44039;48.336;10.454;2022-08-04T09:39:28;312.65;;;302.23;;
46921;SDS011;44039;48.336;10.454;2022-08-04T09:45:37;311.02;;;300.65;;
46921;SDS011;44039;48.336;10.454;2022-08-04T09:48:43;314.70;;;304.10;;
46921;SDS011;44039;48.336;10.454;2022-08-04T09:54:52;312.17;;;301.83;;
46921;SDS011;44039;48.336;10.454;2022-08-04T09:57:53;310.42;;;299.92;;
46921;SDS011;44039;48.336;10.454;2022-08-04T10:00:56;304.45;;;294.10;;
46921;SDS011;44039;48.336;10.454;2022-08-04T10:03:59;308.17;;;298.00;;
46921;SDS011;44039;48.336;10.454;2022-08-04T10:07:08;306.95;;;296.75;;
46921;SDS011;44039;48.336;10.454;2022-08-04T10:10:14;297.02;;;287.15;;
46921;SDS011;44039;48.336;10.454;2022-08-04T10:19:25;304.95;;;294.73;;
46921;SDS011;44039;48.336;10.454;2022-08-04T10:22:18;300.02;;;290.13;;
46921;SDS011;44039;48.336;10.454;2022-08-04T10:25:24;299.58;;;289.63;;
46921;SDS011;44039;48.336;10.454;2022-08-04T10:28:36;299.83;;;289.90;;
46921;SDS011;44039;48.336;10.454;2022-08-04T10:31:34;301.15;;;291.17;;
46921;SDS011;44039;48.336;10.454;2022-08-04T10:34:28;300.80;;;291.00;;
46921;SDS011;44039;48.336;10.454;2022-08-04T10:37:23;302.95;;;292.90;;
46921;SDS011;44039;48.336;10.454;2022-08-04T10:40:38;301.75;;;291.65;;
46921;SDS011;44039;48.336;10.454;2022-08-04T10:46:25;307.77;;;297.50;;
46921;SDS011;44039;48.336;10.454;2022-08-04T10:49:53;305.60;;;295.23;;
46921;SDS011;44039;48.336;10.454;2022-08-04T10:52:33;305.35;;;295.42;;
46921;SDS011;44039;48.336;10.454;2022-08-04T10:59:06;317.60;;;306.65;;
46921;SDS011;44039;48.336;10.454;2022-08-04T11:02:07;322.02;;;311.17;;
46921;SDS011;44039;48.336;10.454;2022-08-04T11:08:31;311.40;;;300.88;;
46921;SDS011;44039;48.336;10.454;2022-08-04T11:14:19;310.05;;;299.70;;
46921;SDS011;44039;48.336;10.454;2022-08-04T11:17:10;309.23;;;299.08;;
46921;SDS011;44039;48.336;10.454;2022-08-04T11:23:22;312.33;;;301.90;;
46921;SDS011;44039;48.336;10.454;2022-08-04T11:26:17;306.13;;;296.27;;
46921;SDS011;44039;48.336;10.454;2022-08-04T11:29:21;310.35;;;299.88;;
46921;SDS011;44039;48.336;10.454;2022-08-04T11:32:20;308.98;;;298.67;;
46921;SDS011;44039;48.336;10.454;2022-08-04T11:38:36;302.75;;;292.73;;
46921;SDS011;44039;48.336;10.454;2022-08-04T11:47:32;317.73;;;307.13;;
46921;SDS011;44039;48.336;10.454;2022-08-04T11:50:31;309.75;;;299.50;;
46921;SDS011;44039;48.336;10.454;2022-08-04T11:53:24;310.10;;;299.83;;
46921;SDS011;44039;48.336;10.454;2022-08-04T11:56:22;306.95;;;296.63;;
46921;SDS011;44039;48.336;10.454;2022-08-04T11:59:22;309.05;;;298.98;;
46921;SDS011;44039;48.336;10.454;2022-08-04T12:11:51;310.40;;;299.95;;
46921;SDS011;44039;48.336;10.454;2022-08-04T12:14:57;320.75;;;310.15;;
46921;SDS011;44039;48.336;10.454;2022-08-04T12:17:53;313.15;;;302.83;;
46921;SDS011;44039;48.336;10.454;2022-08-04T12:20:57;319.30;;;308.52;;
46921;SDS011;44039;48.336;10.454;2022-08-04T12:23:47;312.70;;;302.23;;
46921;SDS011;44039;48.336;10.454;2022-08-04T12:26:49;310.08;;;299.75;;
46921;SDS011;44039;48.336;10.454;2022-08-04T12:29:39;315.00;;;304.70;;
46921;SDS011;44039;48.336;10.454;2022-08-04T12:33:09;311.48;;;301.23;;
46921;SDS011;44039;48.336;10.454;2022-08-04T12:36:11;310.38;;;300.05;;
46921;SDS011;44039;48.336;10.454;2022-08-04T12:42:02;311.35;;;300.90;;
46921;SDS011;44039;48.336;10.454;2022-08-04T12:45:07;306.35;;;296.27;;
46921;SDS011;44039;48.336;10.454;2022-08-04T12:47:57;308.58;;;298.30;;
46921;SDS011;44039;48.336;10.454;2022-08-04T12:50:47;303.35;;;293.50;;
46921;SDS011;44039;48.336;10.454;2022-08-04T12:53:37;309.75;;;299.52;;
46921;SDS011;44039;48.336;10.454;2022-08-04T12:56:37;311.02;;;300.73;;
46921;SDS011;44039;48.336;10.454;2022-08-04T12:59:26;313.13;;;302.70;;
46921;SDS011;44039;48.336;10.454;2022-08-04T13:02:23;311.85;;;301.50;;
46921;SDS011;44039;48.336;10.454;2022-08-04T13:05:16;319.38;;;308.88;;
46921;SDS011;44039;48.336;10.454;2022-08-04T13:08:04;322.30;;;311.48;;
46921;SDS011;44039;48.336;10.454;2022-08-04T13:10:56;322.02;;;311.27;;
46921;SDS011;44039;48.336;10.454;2022-08-04T13:13:44;320.67;;;310.00;;
46921;SDS011;44039;48.336;10.454;2022-08-04T13:16:57;312.30;;;301.98;;
46921;SDS011;44039;48.336;10.454;2022-08-04T13:19:46;315.05;;;304.52;;
46921;SDS011;44039;48.336;10.454;2022-08-04T13:22:39;313.45;;;303.17;;
46921;SDS011;44039;48.336;10.454;2022-08-04T13:25:32;314.08;;;303.73;;
46921;SDS011;44039;48.336;10.454;2022-08-04T13:28:46;311.45;;;301.13;;
46921;SDS011;44039;48.336;10.454;2022-08-04T13:31:36;309.55;;;299.23;;
46921;SDS011;44039;48.336;10.454;2022-08-04T13:34:39;308.52;;;298.40;;
46921;SDS011;44039;48.336;10.454;2022-08-04T13:37:35;311.75;;;301.48;;
46921;SDS011;44039;48.336;10.454;2022-08-04T13:40:25;306.45;;;296.35;;
46921;SDS011;44039;48.336;10.454;2022-08-04T13:43:24;308.83;;;298.63;;
46921;SDS011;44039;48.336;10.454;2022-08-04T13:47:02;311.08;;;300.90;;
46921;SDS011;44039;48.336;10.454;2022-08-04T13:50:12;314.20;;;303.75;;
46921;SDS011;44039;48.336;10.454;2022-08-04T13:53:21;315.80;;;305.38;;
46921;SDS011;44039;48.336;10.454;2022-08-04T13:56:08;329.25;;;318.15;;
46921;SDS011;44039;48.336;10.454;2022-08-04T13:59:00;332.23;;;320.92;;
46921;SDS011;44039;48.336;10.454;2022-08-04T14:02:12;318.55;;;308.05;;
46921;SDS011;44039;48.336;10.454;2022-08-04T14:05:23;319.38;;;308.80;;
46921;SDS011;44039;48.336;10.454;2022-08-04T14:08:23;315.77;;;305.40;;
46921;SDS011;44039;48.336;10.454;2022-08-04T14:11:17;323.67;;;313.00;;
46921;SDS011;44039;48.336;10.454;2022-08-04T14:15:00;313.38;;;303.15;;
46921;SDS011;44039;48.336;10.454;2022-08-04T14:17:47;319.55;;;308.95;;
46921;SDS011;44039;48.336;10.454;2022-08-04T14:20:34;316.67;;;306.40;;
46921;SDS011;44039;48.336;10.454;2022-08-04T14:23:21;320.88;;;310.38;;
46921;SDS011;44039;48.336;10.454;2022-08-04T14:26:18;321.67;;;311.02;;
46921;SDS011;44039;48.336;10.454;2022-08-04T14:29:19;315.65;;;305.25;;
46921;SDS011;44039;48.336;10.454;2022-08-04T14:32:14;315.10;;;304.75;;
46921;SDS011;44039;48.336;10.454;2022-08-04T14:35:11;313.05;;;302.73;;
46921;SDS011;44039;48.336;10.454;2022-08-04T14:37:59;317.92;;;307.42;;
46921;SDS011;44039;48.336;10.454;2022-08-04T14:40:50;312.58;;;302.35;;
46921;SDS011;44039;48.336;10.454;2022-08-04T14:43:46;314.77;;;304.50;;
46921;SDS011;44039;48.336;10.454;2022-08-04T14:46:47;317.25;;;306.77;;
46921;SDS011;44039;48.336;10.454;2022-08-04T14:49:39;317.70;;;307.05;;
46921;SDS011;44039;48.336;10.454;2022-08-04T14:52:39;314.40;;;304.27;;
46921;SDS011;44039;48.336;10.454;2022-08-04T14:55:26;313.80;;;303.25;;
46921;SDS011;44039;48.336;10.454;2022-08-04T14:58:21;309.83;;;299.50;;
46921;SDS011;44039;48.336;10.454;2022-08-04T15:01:25;315.33;;;305.10;;
46921;SDS011;44039;48.336;10.454;2022-08-04T15:04:13;316.75;;;306.35;;
46921;SDS011;44039;48.336;10.454;2022-08-04T15:07:00;317.23;;;306.83;;
46921;SDS011;44039;48.336;10.454;2022-08-04T15:09:50;310.50;;;300.33;;
46921;SDS011;44039;48.336;10.454;2022-08-04T15:12:37;303.55;;;293.65;;
46921;SDS011;44039;48.336;10.454;2022-08-04T15:15:24;297.98;;;288.20;;
46921;SDS011;44039;48.336;10.454;2022-08-04T15:18:22;299.65;;;290.00;;
46921;SDS011;44039;48.336;10.454;2022-08-04T15:21:11;297.83;;;287.95;;
46921;SDS011;44039;48.336;10.454;2022-08-04T15:24:01;291.73;;;282.17;;
46921;SDS011;44039;48.336;10.454;2022-08-04T15:26:49;293.60;;;283.80;;
46921;SDS011;44039;48.336;10.454;2022-08-04T15:29:40;291.33;;;282.00;;
46921;SDS011;44039;48.336;10.454;2022-08-04T15:32:50;291.88;;;282.05;;
46921;SDS011;44039;48.336;10.454;2022-08-04T15:35:41;288.35;;;278.98;;
46921;SDS011;44039;48.336;10.454;2022-08-04T15:38:33;286.90;;;277.42;;
46921;SDS011;44039;48.336;10.454;2022-08-04T15:41:30;285.52;;;276.17;;
46921;SDS011;44039;48.336;10.454;2022-08-04T15:47:13;285.50;;;276.08;;
46921;SDS011;44039;48.336;10.454;2022-08-04T15:50:11;285.60;;;276.45;;
46921;SDS011;44039;48.336;10.454;2022-08-04T15:52:59;288.77;;;279.05;;
46921;SDS011;44039;48.336;10.454;2022-08-04T15:55:58;286.80;;;277.40;;
46921;SDS011;44039;48.336;10.454;2022-08-04T15:58:49;282.75;;;273.58;;
46921;SDS011;44039;48.336;10.454;2022-08-04T16:01:38;282.50;;;273.48;;
46921;SDS011;44039;48.336;10.454;2022-08-04T16:04:45;280.13;;;270.95;;
46921;SDS011;44039;48.336;10.454;2022-08-04T16:07:52;281.02;;;271.88;;
46921;SDS011;44039;48.336;10.454;2022-08-04T16:10:43;279.88;;;270.73;;
46921;SDS011;44039;48.336;10.454;2022-08-04T16:13:31;281.52;;;272.30;;
46921;SDS011;44039;48.336;10.454;2022-08-04T16:16:25;280.75;;;271.65;;
46921;SDS011;44039;48.336;10.454;2022-08-04T16:20:02;278.45;;;269.27;;
46921;SDS011;44039;48.336;10.454;2022-08-04T16:22:48;282.17;;;272.90;;
46921;SDS011;44039;48.336;10.454;2022-08-04T16:25:41;280.08;;;269.98;;
46921;SDS011;44039;48.336;10.454;2022-08-04T16:31:22;277.70;;;268.20;;
46921;SDS011;44039;48.336;10.454;2022-08-04T16:34:09;279.27;;;270.02;;
46921;SDS011;44039;48.336;10.454;2022-08-04T16:37:18;274.55;;;265.67;;
46921;SDS011;44039;48.336;10.454;2022-08-04T16:43:22;276.83;;;267.73;;
46921;SDS011;44039;48.336;10.454;2022-08-04T16:46:23;279.13;;;269.77;;
46921;SDS011;44039;48.336;10.454;2022-08-04T16:49:59;275.35;;;266.40;;
46921;SDS011;44039;48.336;10.454;2022-08-04T16:52:48;276.23;;;267.05;;
46921;SDS011;44039;48.336;10.454;2022-08-04T16:55:38;271.83;;;262.98;;
46921;SDS011;44039;48.336;10.454;2022-08-04T16:58:32;274.20;;;265.42;;
46921;SDS011;44039;48.336;10.454;2022-08-04T17:01:22;275.13;;;265.83;;
46921;SDS011;44039;48.336;10.454;2022-08-04T17:04:29;273.35;;;264.50;;
46921;SDS011;44039;48.336;10.454;2022-08-04T17:07:17;278.80;;;269.92;;
46921;SDS011;44039;48.336;10.454;2022-08-04T17:10:04;273.23;;;264.35;;
46921;SDS011;44039;48.336;10.454;2022-08-04T17:12:51;274.83;;;265.95;;
46921;SDS011;44039;48.336;10.454;2022-08-04T17:16:00;276.92;;;268.08;;
46921;SDS011;44039;48.336;10.454;2022-08-04T17:18:57;276.73;;;267.23;;
46921;SDS011;44039;48.336;10.454;2022-08-04T17:21:44;272.33;;;263.42;;
46921;SDS011;44039;48.336;10.454;2022-08-04T17:24:33;271.55;;;262.63;;
46921;SDS011;44039;48.336;10.454;2022-08-04T17:27:22;270.73;;;261.63;;
46921;SDS011;44039;48.336;10.454;2022-08-04T17:30:30;271.65;;;262.77;;
46921;SDS011;44039;48.336;10.454;2022-08-04T17:33:17;269.15;;;260.50;;
46921;SDS011;44039;48.336;10.454;2022-08-04T17:36:07;269.75;;;261.15;;
46921;SDS011;44039;48.336;10.454;2022-08-04T17:38:59;271.75;;;262.35;;
46921;SDS011;44039;48.336;10.454;2022-08-04T17:41:54;266.08;;;257.45;;
46921;SDS011;44039;48.336;10.454;2022-08-04T17:44:42;268.20;;;259.40;;
46921;SDS011;44039;48.336;10.454;2022-08-04T17:47:31;263.85;;;255.32;;
46921;SDS011;44039;48.336;10.454;2022-08-04T17:50:27;268.70;;;259.88;;
46921;SDS011;44039;48.336;10.454;2022-08-04T17:53:30;269.50;;;260.60;;
46921;SDS011;44039;48.336;10.454;2022-08-04T17:56:41;271.45;;;262.45;;
46921;SDS011;44039;48.336;10.454;2022-08-04T18:02:50;261.60;;;253.07;;
46921;SDS011;44039;48.336;10.454;2022-08-04T18:05:38;264.42;;;255.82;;
46921;SDS011;44039;48.336;10.454;2022-08-04T18:08:50;265.20;;;256.52;;
46921;SDS011;44039;48.336;10.454;2022-08-04T18:12:04;265.33;;;256.73;;
46921;SDS011;44039;48.336;10.454;2022-08-04T18:15:04;263.70;;;255.20;;
46921;SDS011;44039;48.336;10.454;2022-08-04T18:17:52;264.88;;;256.17;;
46921;SDS011;44039;48.336;10.454;2022-08-04T18:21:00;264.73;;;256.00;;
46921;SDS011;44039;48.336;10.454;2022-08-04T18:23:50;261.92;;;253.43;;
46921;SDS011;44039;48.336;10.454;2022-08-04T18:26:38;260.42;;;251.73;;
46921;SDS011;44039;48.336;10.454;2022-08-04T18:29:26;259.27;;;250.70;;
46921;SDS011;44039;48.336;10.454;2022-08-04T18:32:17;255.23;;;246.68;;
46921;SDS011;44039;48.336;10.454;2022-08-04T18:35:06;252.88;;;244.55;;
46921;SDS011;44039;48.336;10.454;2022-08-04T18:38:02;246.23;;;238.18;;
46921;SDS011;44039;48.336;10.454;2022-08-04T18:41:09;246.82;;;238.57;;
46921;SDS011;44039;48.336;10.454;2022-08-04T18:43:58;252.88;;;244.63;;
46921;SDS011;44039;48.336;10.454;2022-08-04T18:46:48;251.50;;;243.18;;
46921;SDS011;44039;48.336;10.454;2022-08-04T18:49:41;247.43;;;239.20;;
46921;SDS011;44039;48.336;10.454;2022-08-04T18:52:48;247.27;;;239.00;;
46921;SDS011;44039;48.336;10.454;2022-08-04T18:55:38;239.15;;;231.15;;
46921;SDS011;44039;48.336;10.454;2022-08-04T18:58:43;240.98;;;232.95;;
46921;SDS011;44039;48.336;10.454;2022-08-04T19:01:31;235.00;;;226.95;;
46921;SDS011;44039;48.336;10.454;2022-08-04T19:04:39;229.48;;;221.80;;
46921;SDS011;44039;48.336;10.454;2022-08-04T19:07:27;228.75;;;221.10;;
46921;SDS011;44039;48.336;10.454;2022-08-04T19:10:16;228.35;;;220.75;;
46921;SDS011;44039;48.336;10.454;2022-08-04T19:13:12;228.02;;;220.27;;
46921;SDS011;44039;48.336;10.454;2022-08-04T19:16:11;225.35;;;217.70;;
46921;SDS011;44039;48.336;10.454;2022-08-04T19:19:06;223.05;;;215.05;;
46921;SDS011;44039;48.336;10.454;2022-08-04T19:21:53;225.27;;;217.80;;
46921;SDS011;44039;48.336;10.454;2022-08-04T19:24:47;224.88;;;216.93;;
46921;SDS011;44039;48.336;10.454;2022-08-04T19:27:35;224.75;;;217.07;;
46921;SDS011;44039;48.336;10.454;2022-08-04T19:30:25;224.27;;;216.65;;
46921;SDS011;44039;48.336;10.454;2022-08-04T19:33:12;223.30;;;215.82;;
46921;SDS011;44039;48.336;10.454;2022-08-04T19:36:03;217.73;;;210.32;;
46921;SDS011;44039;48.336;10.454;2022-08-04T19:38:51;222.23;;;214.32;;
46921;SDS011;44039;48.336;10.454;2022-08-04T19:41:39;222.98;;;215.05;;
46921;SDS011;44039;48.336;10.454;2022-08-04T19:44:47;218.23;;;210.80;;
46921;SDS011;44039;48.336;10.454;2022-08-04T19:47:34;222.13;;;214.52;;
46921;SDS011;44039;48.336;10.454;2022-08-04T19:50:41;219.55;;;211.85;;
46921;SDS011;44039;48.336;10.454;2022-08-04T19:53:29;219.77;;;211.88;;
46921;SDS011;44039;48.336;10.454;2022-08-04T19:56:23;218.20;;;210.70;;
46921;SDS011;44039;48.336;10.454;2022-08-04T19:59:11;214.95;;;207.50;;
46921;SDS011;44039;48.336;10.454;2022-08-04T20:01:58;213.35;;;206.00;;
46921;SDS011;44039;48.336;10.454;2022-08-04T20:04:46;220.30;;;212.85;;
46921;SDS011;44039;48.336;10.454;2022-08-04T20:07:33;214.93;;;207.82;;
46921;SDS011;44039;48.336;10.454;2022-08-04T20:10:21;211.48;;;204.25;;
46921;SDS011;44039;48.336;10.454;2022-08-04T20:13:09;214.18;;;206.55;;
46921;SDS011;44039;48.336;10.454;2022-08-04T20:15:56;212.68;;;205.25;;
46921;SDS011;44039;48.336;10.454;2022-08-04T20:18:44;213.90;;;206.45;;
46921;SDS011;44039;48.336;10.454;2022-08-04T20:21:44;211.20;;;203.75;;
46921;SDS011;44039;48.336;10.454;2022-08-04T20:24:41;208.32;;;201.05;;
46921;SDS011;44039;48.336;10.454;2022-08-04T20:27:41;207.38;;;200.25;;
46921;SDS011;44039;48.336;10.454;2022-08-04T20:30:45;209.52;;;202.13;;
46921;SDS011;44039;48.336;10.454;2022-08-04T20:33:34;208.30;;;201.25;;
46921;SDS011;44039;48.336;10.454;2022-08-04T20:36:22;204.05;;;196.98;;
46921;SDS011;44039;48.336;10.454;2022-08-04T20:39:09;206.38;;;199.18;;
46921;SDS011;44039;48.336;10.454;2022-08-04T20:42:01;208.30;;;200.98;;